Time;durP1;ratioP1;P1;durP2;ratioP2;P2;SDS_P1;SDS_P2;PMS_P1;PMS_P2;Temp;Humidity;BMP_temperature;BMP_pressure;BME280_temperature;BME280_humidity;BME280_pressure;Samples;Min_cycle;Max_cycle;Signal;HPM_P1;HPM_P2
2021/12/13 00:02:08;;;;;;;0.22;0.22;;;;;;;18.87;42.27;102131.28;5145804;27;20481;-36
2021/12/13 00:04:42;;;;;;;0.20;0.20;;;;;;;18.88;42.39;102132.09;5143729;27;20393;-37
2021/12/13 00:07:17;;;;;;;0.20;0.20;;;;;;;18.87;42.27;102133.16;5149714;27;20034;-37
2021/12/13 00:09:45;;;;;;;0.20;0.20;;;;;;;18.88;42.27;102135.69;5143228;27;20049;-37
2021/12/13 00:12:11;;;;;;;0.20;0.20;;;;;;;18.87;42.13;102136.78;5143204;27;20050;-37
2021/12/13 00:14:46;;;;;;;0.20;0.20;;;;;;;18.87;42.22;102131.28;5143985;27;20467;-36
2021/12/13 00:17:14;;;;;;;0.20;0.20;;;;;;;18.88;42.32;102141.22;5149766;27;20047;-36
2021/12/13 00:19:45;;;;;;;0.20;0.20;;;;;;;18.88;42.45;102137.63;5124790;27;20103;-36
2021/12/13 00:22:16;;;;;;;0.20;0.20;;;;;;;18.88;42.45;102145.91;5125583;27;20081;-37
2021/12/13 00:24:44;;;;;;;0.20;0.20;;;;;;;18.87;42.41;102142.31;5119564;27;20420;-37
2021/12/13 00:27:12;;;;;;;;;;;;;;;18.88;42.44;102140.38;5143920;27;20039;-36
2021/12/13 00:29:46;;;;;;;0.20;0.20;;;;;;;18.86;42.34;102143.38;5123291;27;19919;-37
2021/12/13 00:32:52;;;;;;;0.20;0.20;;;;;;;18.87;42.40;102138.69;5141976;27;20035;-36
2021/12/13 00:35:25;;;;;;;0.20;0.20;;;;;;;18.87;42.36;102139.56;5109586;27;20421;-36
2021/12/13 00:37:57;;;;;;;0.20;0.20;;;;;;;18.87;42.50;102144.22;5124486;27;20039;-36
2021/12/13 00:40:29;;;;;;;0.20;0.20;;;;;;;18.88;42.35;102143.97;5139433;27;20061;-38
2021/12/13 00:43:01;;;;;;;0.20;0.20;;;;;;;18.88;42.48;102145.91;5121894;27;20111;-37
2021/12/13 00:45:30;;;;;;;0.20;0.20;;;;;;;18.87;42.30;102147.84;5137423;27;20039;-37
2021/12/13 00:47:58;;;;;;;0.30;0.30;;;;;;;18.88;42.40;102151.44;5122798;27;20039;-37
2021/12/13 00:50:43;;;;;;;0.20;0.20;;;;;;;18.88;42.14;102149.50;5122267;27;20047;-37
2021/12/13 00:53:09;;;;;;;0.20;0.20;;;;;;;18.86;42.46;102140.63;5138529;27;20043;-37
2021/12/13 00:55:38;;;;;;;0.30;0.30;;;;;;;18.88;42.35;102145.91;5138631;27;20069;-37
2021/12/13 00:58:06;;;;;;;;;;;;;;;18.89;42.46;102139.28;5109287;28;20043;-37
2021/12/13 01:00:34;;;;;;;;;;;;;;;18.87;42.31;102134.03;5127744;28;19919;-37
2021/12/13 01:03:06;;;;;;;0.20;0.20;;;;;;;18.86;42.38;102143.38;5124647;28;20061;-35
2021/12/13 01:06:12;;;;;;;0.20;0.20;;;;;;;18.87;42.25;102141.44;5107691;28;20050;-37
2021/12/13 01:09:08;;;;;;;0.22;0.22;;;;;;;18.88;42.25;102145.91;5097290;28;20048;-37
2021/12/13 01:11:56;;;;;;;0.20;0.20;;;;;;;18.88;42.22;102151.44;5110828;28;20088;-35
2021/12/13 01:14:37;;;;;;;0.20;0.20;;;;;;;18.87;42.21;102156.13;5088091;28;20047;-37
2021/12/13 01:17:15;;;;;;;0.20;0.20;;;;;;;18.87;42.49;102147.84;5126180;28;20049;-37
2021/12/13 01:19:53;;;;;;;0.20;0.20;;;;;;;18.88;42.22;102155.03;5094802;28;20055;-36
2021/12/13 01:22:42;;;;;;;0.20;0.20;;;;;;;18.89;42.26;102155.84;5123175;28;20046;-37
2021/12/13 01:27:58;;;;;;;0.20;0.20;;;;;;;18.88;42.37;102156.94;5156086;27;20203;-36
2021/12/13 01:30:43;;;;;;;0.20;0.20;;;;;;;18.87;42.32;102156.13;5128762;27;20491;-36
2021/12/13 01:33:11;;;;;;;0.20;0.20;;;;;;;18.89;42.49;102153.09;5126099;27;20099;-37
2021/12/13 01:35:41;;;;;;;0.20;0.20;;;;;;;18.89;42.27;102148.41;5145926;27;20047;-37
2021/12/13 01:38:14;;;;;;;0.20;0.20;;;;;;;18.90;42.48;102154.75;5131219;27;20038;-37
2021/12/13 01:40:44;;;;;;;0.20;0.20;;;;;;;18.89;42.33;102156.69;5128236;27;20043;-37
2021/12/13 01:43:15;;;;;;;0.28;0.28;;;;;;;18.89;42.55;102155.84;5128470;27;20459;-38
2021/12/13 01:45:45;;;;;;;0.20;0.20;;;;;;;18.88;42.46;102162.47;5125568;27;20048;-36
2021/12/13 01:48:20;;;;;;;0.30;0.30;;;;;;;18.88;42.30;102162.47;5128376;27;20074;-37
2021/12/13 01:50:52;;;;;;;0.20;0.20;;;;;;;18.88;42.33;102163.31;5145216;27;20091;-37
2021/12/13 01:53:29;;;;;;;0.20;0.20;;;;;;;18.90;42.19;102168.56;5144665;27;20047;-37
2021/12/13 01:55:59;;;;;;;0.20;0.20;;;;;;;18.88;42.57;102170.75;5148344;27;20053;-39
2021/12/13 02:01:17;;;;;;;0.28;0.28;;;;;;;18.89;42.27;102172.41;5141934;27;20039;-37
2021/12/13 02:03:57;;;;;;;0.20;0.20;;;;;;;18.90;42.62;102176.84;5143528;27;20078;-39
2021/12/13 02:06:30;;;;;;;0.20;0.20;;;;;;;18.89;42.49;102178.78;5130021;27;20401;-38
2021/12/13 02:09:03;;;;;;;0.20;0.20;;;;;;;18.88;42.48;102179.88;5121664;27;20051;-38
2021/12/13 02:11:30;;;;;;;0.20;0.20;;;;;;;18.88;42.41;102182.63;5129349;27;20038;-38
2021/12/13 02:14:07;;;;;;;0.20;0.20;;;;;;;18.88;42.52;102182.63;5144353;27;20043;-39
2021/12/13 02:17:10;;;;;;;0.22;0.22;;;;;;;18.89;42.38;102181.53;5151106;27;20522;-38
2021/12/13 02:19:32;;;;;;;0.20;0.20;;;;;;;18.89;42.38;102183.47;5106524;27;20398;-38
2021/12/13 02:22:37;;;;;;;0.20;0.20;;;;;;;18.89;42.56;102173.25;5124318;27;20047;-39
2021/12/13 02:25:12;;;;;;;0.20;0.20;;;;;;;18.88;42.38;102171.59;5100640;27;20495;-37
2021/12/13 02:27:41;;;;;;;0.20;0.20;;;;;;;18.89;42.26;102164.97;5121978;27;20055;-40
2021/12/13 02:30:13;;;;;;;0.20;0.20;;;;;;;18.90;42.61;102168.56;5121894;27;20108;-38
2021/12/13 02:32:41;;;;;;;0.20;0.20;;;;;;;18.90;42.47;102168.56;5106976;27;20047;-38
2021/12/13 02:35:08;;;;;;;0.20;0.20;;;;;;;18.90;42.09;102172.16;5104441;27;20058;-38
2021/12/13 02:37:35;;;;;;;0.20;0.20;;;;;;;18.91;42.46;102179.38;5121492;27;20483;-37
2021/12/13 02:40:02;;;;;;;0.20;0.20;;;;;;;18.90;42.33;102172.16;5072877;28;20040;-37
2021/12/13 02:42:29;;;;;;;0.20;0.20;;;;;;;18.90;42.46;102176.84;5110389;28;20065;-38
2021/12/13 02:45:04;;;;;;;0.20;0.20;;;;;;;18.90;42.48;102174.09;5091650;28;20363;-38
2021/12/13 02:47:35;;;;;;;0.25;0.25;;;;;;;18.89;42.43;102170.50;5093135;28;20044;-37
2021/12/13 02:50:03;;;;;;;0.20;0.20;;;;;;;18.89;42.55;102167.72;5095776;28;20044;-37
2021/12/13 02:52:28;;;;;;;0.20;0.20;;;;;;;18.91;42.49;102175.75;5094044;28;20039;-38
2021/12/13 02:54:59;;;;;;;0.20;0.20;;;;;;;18.90;42.58;102176.84;5091723;28;20341;-37
2021/12/13 02:57:31;;;;;;;0.20;0.20;;;;;;;18.90;42.53;102176.84;5093613;28;20043;-35
2021/12/13 03:00:09;;;;;;;0.20;0.20;;;;;;;18.90;42.53;102179.59;5090964;28;20100;-36
2021/12/13 03:02:40;;;;;;;0.20;0.20;;;;;;;18.90;42.46;102174.09;5085448;28;20040;-37
2021/12/13 03:05:14;;;;;;;0.20;0.20;;;;;;;18.89;42.47;102162.22;5090930;28;20060;-36
2021/12/13 03:07:43;;;;;;;0.20;0.20;;;;;;;18.90;42.38;102179.59;5088631;28;20051;-36
2021/12/13 03:10:13;;;;;;;0.28;0.28;;;;;;;18.90;42.34;102185.13;5076578;28;20039;-37
2021/12/13 03:12:39;;;;;;;0.20;0.20;;;;;;;18.90;42.29;102187.88;5090894;28;20039;-37
2021/12/13 03:15:09;;;;;;;0.22;0.22;;;;;;;18.89;42.49;102187.06;5110170;28;20044;-38
2021/12/13 03:17:38;;;;;;;0.20;0.20;;;;;;;18.90;42.52;102187.88;5091643;28;20482;-38
2021/12/13 03:20:21;;;;;;;0.22;0.22;;;;;;;18.88;42.49;102185.38;5107679;28;20123;-38
2021/12/13 03:23:23;;;;;;;0.20;0.20;;;;;;;18.90;42.59;102185.97;5109089;28;20047;-36
2021/12/13 03:26:22;;;;;;;0.20;0.20;;;;;;;18.89;42.40;102181.53;5096547;28;20047;-38
2021/12/13 03:29:16;;;;;;;0.20;0.20;;;;;;;18.89;42.44;102198.09;5093804;28;20405;-38
2021/12/13 03:31:50;;;;;;;0.30;0.30;;;;;;;18.91;42.47;102186.78;5082919;28;20048;-38
2021/12/13 03:34:22;;;;;;;0.30;0.30;;;;;;;18.90;42.36;102191.47;5110059;28;20043;-37
2021/12/13 03:36:56;;;;;;;0.30;0.30;;;;;;;18.91;42.55;102195.06;5090325;28;20039;-38
2021/12/13 03:39:27;;;;;;;0.20;0.20;;;;;;;18.91;42.38;102195.06;5093218;28;20048;-39
2021/12/13 03:41:56;;;;;;;0.20;0.20;;;;;;;18.89;42.43;102192.56;5110399;28;20417;-38
2021/12/13 03:44:28;;;;;;;0.20;0.20;;;;;;;18.91;42.46;102200.59;5108167;28;20047;-38
2021/12/13 03:46:58;;;;;;;0.20;0.20;;;;;;;18.90;42.44;102197.00;5093703;28;20127;-36
2021/12/13 03:49:25;;;;;;;0.20;0.20;;;;;;;18.92;42.47;102199.53;5092125;28;20063;-38
2021/12/13 03:51:55;;;;;;;0.20;0.20;;;;;;;18.91;42.54;102198.69;5113035;28;20126;-37
2021/12/13 03:54:21;;;;;;;0.20;0.20;;;;;;;18.90;42.60;102197.00;5087602;28;20046;-36
2021/12/13 03:56:49;;;;;;;0.20;0.20;;;;;;;18.90;42.42;102205.28;5111266;28;20047;-37
2021/12/13 03:59:22;;;;;;;0.20;0.20;;;;;;;18.90;42.67;102208.03;5091091;28;20050;-37
2021/12/13 04:01:53;;;;;;;0.28;0.28;;;;;;;18.90;42.48;102210.81;5109391;28;20397;-38
2021/12/13 04:04:22;;;;;;;0.20;0.20;;;;;;;18.89;42.55;102205.53;5073216;28;20035;-39
2021/12/13 04:06:51;;;;;;;0.20;0.20;;;;;;;18.90;42.57;102210.81;5107374;28;20047;-38
2021/12/13 04:09:19;;;;;;;0.20;0.20;;;;;;;18.89;42.46;102211.91;5093549;28;20388;-37
2021/12/13 04:11:46;;;;;;;0.20;0.20;;;;;;;18.89;42.48;102211.91;5108919;28;20040;-39
2021/12/13 04:14:21;;;;;;;0.20;0.20;;;;;;;18.91;42.45;102208.88;5107637;28;20130;-38
2021/12/13 04:17:21;;;;;;;0.20;0.20;;;;;;;18.91;42.59;102206.13;5107757;28;20441;-38
2021/12/13 04:19:54;;;;;;;0.20;0.20;;;;;;;18.91;42.53;102206.13;5082951;28;20062;-38
2021/12/13 04:22:24;;;;;;;0.20;0.20;;;;;;;18.90;42.46;102210.81;5089693;28;20043;-40
2021/12/13 04:24:54;;;;;;;0.20;0.20;;;;;;;18.91;42.46;102201.47;5088463;28;20039;-37
2021/12/13 04:27:28;;;;;;;0.20;0.20;;;;;;;18.90;42.65;102205.28;5092228;28;20051;-38
2021/12/13 04:29:58;;;;;;;0.20;0.20;;;;;;;18.90;42.45;102207.22;5090629;28;20047;-37
2021/12/13 04:32:29;;;;;;;0.20;0.20;;;;;;;18.90;42.70;102216.31;5107763;28;20406;-38
2021/12/13 04:34:57;;;;;;;0.20;0.20;;;;;;;18.90;42.68;102212.72;5111309;28;20426;-38
2021/12/13 04:37:27;;;;;;;;;;;;;;;18.91;42.60;102208.88;5109752;28;21252;-37
2021/12/13 04:39:56;;;;;;;0.20;0.20;;;;;;;18.90;42.52;102210.81;5089181;28;19927;-38
2021/12/13 04:42:24;;;;;;;0.20;0.20;;;;;;;18.91;42.61;102214.41;5105923;28;20470;-39
2021/12/13 04:45:14;;;;;;;0.20;0.20;;;;;;;18.91;42.63;102208.88;5088813;28;20039;-37
2021/12/13 04:47:49;;;;;;;0.20;0.20;;;;;;;18.91;42.65;102206.13;5110980;28;20047;-38
2021/12/13 04:50:20;;;;;;;0.20;0.20;;;;;;;18.91;42.64;102208.88;5107634;28;20400;-37
2021/12/13 04:52:47;;;;;;;0.28;0.28;;;;;;;18.91;42.44;102208.88;5111749;28;20050;-38
2021/12/13 04:55:17;;;;;;;0.20;0.20;;;;;;;18.91;42.61;102208.88;5101285;28;20046;-37
2021/12/13 04:57:43;;;;;;;0.22;0.22;;;;;;;18.90;42.70;102208.03;5074395;28;20048;-37
2021/12/13 05:00:14;;;;;;;0.28;0.28;;;;;;;18.90;42.62;102207.22;5108147;28;20063;-38
2021/12/13 05:02:45;;;;;;;0.20;0.20;;;;;;;18.91;42.41;102206.13;5094667;28;20486;-37
2021/12/13 05:05:12;;;;;;;0.20;0.20;;;;;;;18.91;42.64;102204.22;5106256;28;20047;-37
2021/12/13 05:07:41;;;;;;;0.20;0.20;;;;;;;18.92;42.41;102214.16;5092302;28;20069;-39
2021/12/13 05:10:08;;;;;;;0.20;0.20;;;;;;;18.90;42.50;102210.81;5090680;28;20483;-37
2021/12/13 05:12:34;;;;;;;0.20;0.20;;;;;;;18.93;42.37;102215.84;5111352;28;20053;-38
2021/12/13 05:15:06;;;;;;;0.20;0.20;;;;;;;18.91;42.47;102209.75;5107359;28;20043;-39
2021/12/13 05:17:36;;;;;;;0.20;0.20;;;;;;;18.91;42.41;102204.22;5076905;28;20057;-38
2021/12/13 05:20:22;;;;;;;0.20;0.20;;;;;;;18.90;42.53;102202.53;5105807;28;20039;-39
2021/12/13 05:22:53;;;;;;;0.20;0.20;;;;;;;18.91;42.56;102208.88;5110329;28;20439;-38
2021/12/13 05:25:36;;;;;;;0.20;0.20;;;;;;;18.93;42.57;102209.47;5072142;28;20054;-38
2021/12/13 05:28:09;;;;;;;0.20;0.20;;;;;;;18.91;42.61;102208.88;5091367;28;20183;-39
2021/12/13 05:30:44;;;;;;;0.20;0.20;;;;;;;18.92;42.55;102205.88;5094738;28;20062;-39
2021/12/13 05:33:13;;;;;;;0.20;0.20;;;;;;;18.92;42.42;102216.09;5089622;28;20052;-39
2021/12/13 05:35:44;;;;;;;0.20;0.20;;;;;;;18.91;42.75;102209.75;5110466;28;20043;-39
2021/12/13 05:38:21;;;;;;;0.20;0.20;;;;;;;18.92;42.79;102208.66;5106374;28;20043;-36
2021/12/13 05:40:47;;;;;;;0.25;0.25;;;;;;;18.91;42.64;102215.25;5107990;28;20046;-37
2021/12/13 05:43:37;;;;;;;0.30;0.30;;;;;;;18.92;42.57;102211.41;5071967;28;20067;-38
2021/12/13 05:46:06;;;;;;;0.30;0.30;;;;;;;18.91;42.79;102209.75;5093179;28;20043;-38
2021/12/13 05:51:37;;;;;;;0.20;0.20;;;;;;;18.91;42.73;102215.25;5166201;27;20202;-40
2021/12/13 05:54:08;;;;;;;0.20;0.20;;;;;;;18.92;42.52;102219.69;5127239;27;20061;-38
2021/12/13 05:56:38;;;;;;;0.20;0.20;;;;;;;18.92;42.75;102225.22;5148011;27;20410;-38
2021/12/13 05:59:18;;;;;;;0.20;0.20;;;;;;;18.91;42.56;102229.06;5130431;27;20107;-38
2021/12/13 06:02:07;;;;;;;0.20;0.20;;;;;;;18.93;42.58;102231.56;5145333;27;20045;-37
2021/12/13 06:04:57;;;;;;;0.20;0.20;;;;;;;18.93;42.48;102231.56;5131438;27;20646;-36
2021/12/13 06:07:26;;;;;;;0.20;0.20;;;;;;;18.91;42.63;102226.31;5127679;27;20138;-37
2021/12/13 06:10:16;;;;;;;0.20;0.20;;;;;;;18.93;42.55;102231.56;5127714;27;20378;-36
2021/12/13 06:12:54;;;;;;;0.20;0.20;;;;;;;18.93;42.72;102234.31;5129246;27;20087;-36
2021/12/13 06:15:27;;;;;;;0.20;0.20;;;;;;;18.92;42.60;102236.25;5127012;27;20466;-36
2021/12/13 06:18:12;;;;;;;0.20;0.20;;;;;;;18.93;42.53;102237.09;5143023;27;20039;-37
2021/12/13 06:20:50;;;;;;;0.20;0.20;;;;;;;18.92;42.63;102241.78;5114416;27;20051;-36
2021/12/13 06:23:21;;;;;;;0.20;0.20;;;;;;;18.93;42.68;102242.59;5127431;27;20044;-36
2021/12/13 06:25:53;;;;;;;0.20;0.20;;;;;;;18.94;42.68;102244.28;5108655;27;20090;-37
2021/12/13 06:28:32;;;;;;;0.20;0.20;;;;;;;18.93;42.54;102239.84;5131090;27;20047;-37
2021/12/13 06:31:02;;;;;;;0.20;0.20;;;;;;;18.92;42.77;102244.53;5131122;27;20043;-37
2021/12/13 06:33:29;;;;;;;0.20;0.20;;;;;;;18.94;42.45;102236.81;5128431;27;20050;-36
2021/12/13 06:35:57;;;;;;;0.20;0.20;;;;;;;18.93;42.65;102242.59;5132612;27;20039;-38
2021/12/13 06:41:31;;;;;;;0.20;0.20;;;;;;;18.93;42.49;102237.91;5155960;27;20194;-37
2021/12/13 06:44:07;;;;;;;0.20;0.20;;;;;;;18.94;42.82;102238.75;5141755;27;20042;-39
2021/12/13 06:46:39;;;;;;;0.20;0.20;;;;;;;19.02;43.71;102235.59;5120227;27;20050;-37
2021/12/13 06:51:49;;;;;;;0.20;0.20;;;;;;;19.14;43.89;102241.06;5154839;27;20237;-43
2021/12/13 06:54:27;;;;;;;0.20;0.20;;;;;;;19.26;44.42;102252.88;5101277;27;20046;-43
2021/12/13 06:57:21;;;;;;;0.20;0.20;;;;;;;19.22;44.17;102249.78;5116231;27;20111;-39
2021/12/13 07:00:12;;;;;;;0.20;0.20;;;;;;;19.18;44.04;102245.00;5118477;27;20553;-42
2021/12/13 07:02:41;;;;;;;0.20;0.20;;;;;;;19.17;44.23;102251.59;5121972;27;20488;-42
2021/12/13 07:05:19;;;;;;;0.20;0.20;;;;;;;19.15;43.64;102245.50;5106405;27;20563;-39
2021/12/13 07:07:55;;;;;;;0.20;0.20;;;;;;;19.15;43.57;102242.72;5131949;27;20049;-39
2021/12/13 07:10:25;;;;;;;0.20;0.20;;;;;;;19.15;43.38;102243.56;5133230;27;20042;-42
2021/12/13 07:12:55;;;;;;;0.20;0.20;;;;;;;19.16;43.66;102238.88;5108098;27;20087;-39
2021/12/13 07:15:27;;;;;;;0.20;0.20;;;;;;;19.15;43.51;102243.56;5111056;27;20051;-40
2021/12/13 07:18:14;;;;;;;0.20;0.20;;;;;;;19.17;43.36;102254.34;5136524;27;20335;-41
2021/12/13 07:24:05;;;;;;;0.20;0.20;;;;;;;19.19;43.59;102263.25;5150692;27;20121;-40
2021/12/13 07:29:12;;;;;;;0.20;0.20;;;;;;;19.29;43.19;102272.53;5148664;27;20240;-38
2021/12/13 07:31:40;;;;;;;0.22;0.22;;;;;;;19.29;43.34;102277.22;5151549;27;20043;-43
2021/12/13 07:34:10;;;;;;;0.20;0.20;;;;;;;19.35;43.50;102267.13;5124045;27;20043;-39
2021/12/13 07:36:36;;;;;;;0.20;0.20;;;;;;;19.37;43.24;102271.28;5148031;27;20472;-40
2021/12/13 07:39:08;;;;;;;0.20;0.20;;;;;;;19.38;43.37;102261.06;5146577;27;20106;-40
2021/12/13 07:41:49;;;;;;;0.20;0.20;;;;;;;19.35;43.35;102262.44;5147725;27;20035;-38
2021/12/13 07:44:51;;;;;;;0.20;0.20;;;;;;;19.36;43.14;102274.31;5154086;27;20034;-37
2021/12/13 07:47:19;;;;;;;0.20;0.20;;;;;;;19.37;43.28;102281.50;5134234;27;20579;-39
2021/12/13 07:49:48;;;;;;;0.20;0.20;;;;;;;19.37;43.26;102276.81;5132285;27;20118;-38
2021/12/13 07:52:32;;;;;;;0.20;0.20;;;;;;;19.38;43.10;102281.25;5133752;27;20046;-40
2021/12/13 07:55:14;;;;;;;0.20;0.20;;;;;;;19.39;42.97;102285.72;5146250;27;20060;-40
2021/12/13 07:57:40;;;;;;;0.20;0.20;;;;;;;19.39;43.30;102294.00;5146984;27;20382;-39
2021/12/13 08:00:12;;;;;;;0.20;0.20;;;;;;;19.41;43.29;102296.50;5148793;27;22069;-40
2021/12/13 08:02:37;;;;;;;0.20;0.20;;;;;;;19.41;43.10;102294.56;5120552;27;20380;-40
2021/12/13 08:05:09;;;;;;;0.20;0.20;;;;;;;19.42;42.90;102301.75;5116895;27;20051;-42
2021/12/13 08:07:47;;;;;;;0.20;0.20;;;;;;;19.44;42.91;102309.81;5139487;27;20042;-42
2021/12/13 08:10:17;;;;;;;;;;;;;;;19.44;42.97;102313.41;5112959;27;20098;-44
2021/12/13 08:12:47;;;;;;;0.20;0.20;;;;;;;19.45;42.92;102320.63;5147550;27;19927;-40
2021/12/13 08:15:18;;;;;;;0.20;0.20;;;;;;;19.47;43.04;102323.13;5138505;27;20542;-50
2021/12/13 08:17:50;;;;;;;0.20;0.20;;;;;;;19.51;43.00;102322.38;5125171;27;20135;-40
2021/12/13 08:20:36;;;;;;;0.20;0.20;;;;;;;19.55;42.75;102326.31;5133316;27;20053;-40
2021/12/13 08:23:03;;;;;;;0.20;0.20;;;;;;;19.53;42.87;102333.19;5128934;27;20046;-40
2021/12/13 08:25:33;;;;;;;0.20;0.20;;;;;;;19.55;43.08;102336.53;5108830;27;20220;-39
2021/12/13 08:28:04;;;;;;;0.20;0.20;;;;;;;19.54;42.92;102338.47;5125530;27;20062;-39
2021/12/13 08:30:34;;;;;;;0.20;0.20;;;;;;;19.55;42.66;102337.38;5091161;27;20050;-40
2021/12/13 08:33:07;;;;;;;0.20;0.20;;;;;;;19.57;42.82;102337.13;5110692;27;20051;-40
2021/12/13 08:36:13;;;;;;;0.20;0.20;;;;;;;19.58;42.73;102333.28;5130498;27;20039;-43
2021/12/13 08:38:47;;;;;;;0.20;0.20;;;;;;;19.58;42.67;102338.81;5096402;27;20039;-40
2021/12/13 08:43:57;;;;;;;0.20;0.20;;;;;;;19.59;42.64;102337.72;5150197;27;20671;-38
2021/12/13 08:46:37;;;;;;;0.20;0.20;;;;;;;19.60;42.80;102331.09;5120774;27;20049;-40
2021/12/13 08:49:25;;;;;;;0.20;0.20;;;;;;;19.59;42.66;102332.19;5130812;27;20792;-39
2021/12/13 08:55:04;;;;;;;0.20;0.20;;;;;;;19.57;42.65;102339.06;5147150;27;20210;-38
2021/12/13 08:58:07;;;;;;;0.20;0.20;;;;;;;19.55;42.68;102329.06;5118014;27;20389;-38
2021/12/13 09:01:03;;;;;;;0.20;0.20;;;;;;;19.54;42.89;102324.66;5117089;27;20494;-44
2021/12/13 09:03:35;;;;;;;0.20;0.20;;;;;;;19.54;42.58;102332.09;5119398;27;20058;-41
2021/12/13 09:06:29;;;;;;;0.20;0.20;;;;;;;19.53;42.67;102327.66;5129722;27;20052;-42
2021/12/13 09:09:04;;;;;;;0.20;0.20;;;;;;;19.53;42.67;102328.50;5129708;27;20186;-39
2021/12/13 09:11:55;;;;;;;0.20;0.20;;;;;;;19.53;42.88;102327.66;5100859;27;20973;-37
2021/12/13 09:14:31;;;;;;;0.20;0.20;;;;;;;19.53;42.70;102327.66;5089544;27;20047;-42
2021/12/13 09:17:08;;;;;;;0.20;0.20;;;;;;;19.51;42.62;102330.66;5123215;27;20118;-36
2021/12/13 09:22:32;;;;;;;0.20;0.20;;;;;;;19.52;42.63;102340.66;5159826;27;20208;-40
2021/12/13 09:25:10;;;;;;;0.20;0.20;;;;;;;19.52;42.72;102340.66;5129322;27;20091;-39
2021/12/13 09:27:43;;;;;;;;;;;;;;;19.51;42.90;102343.63;5135093;27;20047;-36
2021/12/13 09:30:19;;;;;;;0.20;0.20;;;;;;;19.73;44.86;102339.13;5134661;27;20254;-39
2021/12/13 09:32:52;;;;;;;0.20;0.20;;;;;;;19.78;44.28;102346.66;5153708;27;20066;-38
2021/12/13 09:35:58;;;;;;;0.20;0.20;;;;;;;19.76;44.16;102354.34;5135505;27;20505;-42
2021/12/13 09:38:37;;;;;;;0.20;0.20;;;;;;;19.70;44.23;102345.13;5115661;27;20046;-41
2021/12/13 09:41:28;;;;;;;0.20;0.20;;;;;;;19.70;44.02;102352.59;5126869;27;20120;-40
2021/12/13 09:44:04;;;;;;;0.20;0.20;;;;;;;19.70;43.68;102350.66;5134182;27;20371;-42
2021/12/13 09:46:38;;;;;;;0.20;0.20;;;;;;;19.69;43.87;102353.66;5149277;27;20043;-40
2021/12/13 09:49:10;;;;;;;0.20;0.20;;;;;;;19.69;43.61;102359.19;5147205;27;20057;-43
2021/12/13 09:51:42;;;;;;;0.20;0.20;;;;;;;19.70;43.51;102374.69;5147579;27;20183;-45
2021/12/13 09:54:09;;;;;;;0.20;0.20;;;;;;;19.70;43.39;102367.25;5142326;27;20054;-41
2021/12/13 09:56:38;;;;;;;0.20;0.20;;;;;;;19.70;43.52;102367.25;5139277;27;20050;-41
2021/12/13 09:59:13;;;;;;;0.20;0.20;;;;;;;19.71;43.46;102366.16;5141783;27;20427;-42
2021/12/13 10:01:39;;;;;;;0.20;0.20;;;;;;;19.71;43.56;102359.78;5132202;27;20093;-42
2021/12/13 10:04:09;;;;;;;0.20;0.20;;;;;;;19.73;43.34;102365.88;5149590;27;20048;-43
2021/12/13 10:06:50;;;;;;;0.20;0.20;;;;;;;19.73;43.17;102366.75;5119940;27;20050;-43
2021/12/13 10:09:37;;;;;;;0.20;0.20;;;;;;;19.73;43.36;102360.38;5146583;27;20039;-42
2021/12/13 10:12:10;;;;;;;0.20;0.20;;;;;;;19.73;43.41;102361.22;5125317;27;21360;-43
2021/12/13 10:14:40;;;;;;;0.20;0.20;;;;;;;19.74;43.01;102353.78;5142367;27;20073;-42
2021/12/13 10:17:08;;;;;;;0.20;0.20;;;;;;;19.74;43.06;102356.53;5128830;27;20108;-40
2021/12/13 10:19:40;;;;;;;0.20;0.20;;;;;;;19.75;43.03;102355.44;5148928;27;20051;-39
2021/12/13 10:22:08;;;;;;;0.20;0.20;;;;;;;19.75;43.28;102358.19;5146662;27;20443;-41
2021/12/13 10:24:39;;;;;;;0.20;0.20;;;;;;;19.75;43.06;102359.03;5123208;27;20039;-41
2021/12/13 10:27:07;;;;;;;0.20;0.20;;;;;;;19.76;42.93;102355.19;5104068;27;20111;-43
2021/12/13 10:29:47;;;;;;;0.20;0.20;;;;;;;19.76;42.91;102357.94;5142519;27;20046;-40
2021/12/13 10:32:24;;;;;;;0.20;0.20;;;;;;;19.76;43.16;102349.66;5117854;27;20043;-40
2021/12/13 10:34:54;;;;;;;0.20;0.20;;;;;;;19.77;42.79;102359.63;5103859;27;20206;-40
2021/12/13 10:37:25;;;;;;;0.20;0.20;;;;;;;19.77;43.12;102356.00;5123172;27;20049;-42
2021/12/13 10:39:56;;;;;;;0.20;0.20;;;;;;;19.78;43.13;102352.19;5094978;27;20047;-43
2021/12/13 10:42:30;;;;;;;0.20;0.20;;;;;;;19.78;42.96;102357.72;5115082;27;20061;-43
2021/12/13 10:44:57;;;;;;;0.20;0.20;;;;;;;19.77;42.91;102362.41;5101739;27;20042;-40
2021/12/13 10:47:30;;;;;;;0.20;0.20;;;;;;;19.76;42.86;102362.63;5108214;27;21850;-43
2021/12/13 10:49:56;;;;;;;0.20;0.20;;;;;;;19.75;43.12;102355.44;5127393;27;20057;-40
2021/12/13 10:52:28;;;;;;;0.20;0.20;;;;;;;19.74;43.07;102356.53;5128784;27;20047;-42
2021/12/13 10:54:59;;;;;;;0.20;0.20;;;;;;;19.74;42.87;102353.78;5123891;27;20071;-41
2021/12/13 10:57:31;;;;;;;0.20;0.20;;;;;;;19.75;43.10;102349.91;5128761;27;20744;-40
2021/12/13 10:59:59;;;;;;;0.20;0.20;;;;;;;19.72;43.06;102345.72;5126483;27;20071;-41
2021/12/13 11:02:30;;;;;;;0.20;0.20;;;;;;;19.72;42.80;102342.94;5131473;27;20323;-41
2021/12/13 11:05:01;;;;;;;0.20;0.20;;;;;;;19.72;43.09;102340.19;5108454;27;20043;-39
2021/12/13 11:07:28;;;;;;;0.20;0.20;;;;;;;19.73;43.14;102346.53;5113260;27;20434;-39
2021/12/13 11:09:56;;;;;;;0.10;0.10;;;;;;;19.71;43.00;102346.81;5131438;27;20039;-37
2021/12/13 11:12:27;;;;;;;0.20;0.20;;;;;;;19.72;42.90;102345.72;5101202;27;20095;-40
2021/12/13 11:14:55;;;;;;;0.20;0.20;;;;;;;19.71;42.78;102348.72;5113030;27;20366;-45
2021/12/13 11:17:22;;;;;;;;;;;;;;;19.71;43.12;102354.25;5125031;27;20042;-38
2021/12/13 11:19:58;;;;;;;0.20;0.20;;;;;;;19.69;42.93;102354.53;5110349;27;19927;-39
2021/12/13 11:22:29;;;;;;;0.20;0.20;;;;;;;19.70;43.09;102350.66;5107251;27;20366;-39
2021/12/13 11:24:59;;;;;;;0.20;0.20;;;;;;;19.69;43.16;102349.00;5104073;27;20046;-40
2021/12/13 11:27:30;;;;;;;0.20;0.20;;;;;;;19.69;43.10;102345.38;5131385;27;20042;-42
2021/12/13 11:29:57;;;;;;;0.20;0.20;;;;;;;19.68;42.85;102347.28;5104293;27;20046;-39
2021/12/13 11:38:20;;;;;;;0.20;0.20;;;;;;;19.67;42.81;102342.88;5106057;27;20435;-38
2021/12/13 11:41:07;;;;;;;0.20;0.20;;;;;;;19.67;42.83;102340.09;5078190;28;20187;-42
2021/12/13 11:44:13;;;;;;;0.20;0.20;;;;;;;19.66;42.79;102343.97;5073324;28;20547;-38
2021/12/13 11:47:18;;;;;;;0.20;0.20;;;;;;;19.67;42.95;102344.78;5079621;28;20092;-38
2021/12/13 11:50:24;;;;;;;0.20;0.20;;;;;;;19.66;42.99;102345.88;5071727;28;20138;-40
2021/12/13 11:53:20;;;;;;;0.20;0.20;;;;;;;19.66;42.98;102343.97;5065644;28;20048;-41
2021/12/13 11:56:25;;;;;;;0.20;0.20;;;;;;;19.65;42.69;102339.53;5075865;28;21745;-40
2021/12/13 12:01:55;;;;;;;0.20;0.20;;;;;;;19.64;42.77;102340.59;5165981;27;20213;-38
2021/12/13 12:05:05;;;;;;;0.10;0.10;;;;;;;19.64;42.76;102348.03;5154624;27;20050;-41
2021/12/13 12:08:10;;;;;;;0.20;0.20;;;;;;;19.64;42.83;102346.13;5128990;27;20260;-37
2021/12/13 12:11:15;;;;;;;0.20;0.20;;;;;;;19.63;42.86;102347.22;5143148;27;20047;-40
2021/12/13 12:14:04;;;;;;;0.20;0.20;;;;;;;19.64;43.03;102348.03;5139587;27;20552;-38
2021/12/13 12:16:31;;;;;;;0.20;0.20;;;;;;;19.63;42.81;102344.44;5128445;27;20042;-39
2021/12/13 12:18:57;;;;;;;0.20;0.20;;;;;;;19.63;43.10;102341.69;5149445;27;20051;-42
2021/12/13 12:21:44;;;;;;;0.20;0.20;;;;;;;19.63;42.76;102343.63;5142039;27;20051;-38
2021/12/13 12:24:14;;;;;;;0.20;0.20;;;;;;;19.64;43.08;102345.28;5133396;27;20085;-38
2021/12/13 12:26:41;;;;;;;0.20;0.20;;;;;;;19.62;42.69;102342.78;5127146;27;20065;-38
2021/12/13 12:29:11;;;;;;;0.20;0.20;;;;;;;19.63;42.90;102335.31;5150398;27;20050;-41
2021/12/13 12:31:41;;;;;;;0.20;0.20;;;;;;;19.62;42.90;102334.50;5148863;27;20042;-36
2021/12/13 12:34:08;;;;;;;0.20;0.20;;;;;;;19.62;42.88;102333.66;5113285;27;20042;-36
2021/12/13 12:36:43;;;;;;;0.20;0.20;;;;;;;19.64;43.18;102328.69;5143003;27;20053;-38
2021/12/13 12:39:48;;;;;;;0.20;0.20;;;;;;;19.67;42.72;102326.28;5122586;27;20039;-38
2021/12/13 12:42:32;;;;;;;0.20;0.20;;;;;;;19.65;42.77;102320.19;5122445;27;20136;-39